Time;durP1;ratioP1;P1;durP2;ratioP2;P2;SDS_P1;SDS_P2;PMS_P1;PMS_P2;Temp;Humidity;BMP_temperature;BMP_pressure;BME280_temperature;BME280_humidity;BME280_pressure;Samples;Min_cycle;Max_cycle;Signal;HPM_P1;HPM_P2
2022/03/14 00:01:53;;;;;;;66.32;27.42;;;;;;;1.47;40.38;101259.19;4346048;33;33452;-89
2022/03/14 00:04:22;;;;;;;68.78;23.83;;;;;;;1.36;40.60;101269.44;4356724;32;34000;-89
2022/03/14 00:06:51;;;;;;;57.88;23.90;;;;;;;1.39;40.47;101260.81;4356988;32;32668;-88
2022/03/14 00:09:18;;;;;;;63.20;24.87;;;;;;;1.02;40.38;101268.84;4358524;32;32864;-88
2022/03/14 00:11:50;;;;;;;58.13;22.02;;;;;;;1.74;39.28;101275.28;4358013;32;33736;-88
2022/03/14 00:14:19;;;;;;;52.88;22.15;;;;;;;1.46;39.78;101278.28;4353262;32;33509;-89
2022/03/14 00:16:47;;;;;;;66.43;23.60;;;;;;;1.30;40.42;101284.94;4344875;33;33401;-88
2022/03/14 00:19:15;;;;;;;76.75;26.50;;;;;;;1.41;40.42;101285.13;4357656;32;33144;-88
2022/03/14 00:21:44;;;;;;;66.25;24.83;;;;;;;1.28;40.64;101278.81;4358062;32;34868;-89
2022/03/14 00:24:13;;;;;;;56.15;22.10;;;;;;;1.20;40.97;101283.03;4357867;32;33434;-88
2022/03/14 00:26:41;;;;;;;47.17;21.05;;;;;;;1.14;40.94;101281.22;4351548;32;32734;-87
2022/03/14 00:29:09;;;;;;;50.53;20.20;;;;;;;1.05;40.50;101281.03;4357338;32;32578;-88
2022/03/14 00:31:38;;;;;;;49.58;17.90;;;;;;;1.30;40.19;101284.94;4340091;33;33227;-88
2022/03/14 00:34:09;;;;;;;42.75;17.92;;;;;;;1.31;40.21;101283.22;4356699;32;33711;-87
2022/03/14 00:36:37;;;;;;;45.60;17.83;;;;;;;1.05;40.77;101283.63;4356661;32;32449;-88
2022/03/14 00:39:04;;;;;;;37.30;15.35;;;;;;;1.35;40.05;101287.63;4356781;32;32698;-87
2022/03/14 00:41:32;;;;;;;38.00;16.65;;;;;;;1.26;40.40;101286.62;4357523;32;32090;-88
2022/03/14 00:44:00;;;;;;;40.05;16.30;;;;;;;1.18;40.56;101277.78;4357295;32;32339;-87
2022/03/14 00:46:28;;;;;;;49.95;19.50;;;;;;;1.11;40.76;101277.66;4357494;32;33974;-87
2022/03/14 00:48:56;;;;;;;49.67;18.98;;;;;;;1.21;40.61;101288.25;4357367;32;33133;-87
2022/03/14 00:51:24;;;;;;;52.10;20.60;;;;;;;1.01;40.93;101284.41;4356850;32;34048;-87
2022/03/14 00:53:51;;;;;;;61.10;22.33;;;;;;;1.21;40.43;101280.44;4344551;33;33377;-87
2022/03/14 00:56:20;;;;;;;62.17;22.33;;;;;;;1.07;40.74;101287.13;4357018;32;32578;-86
2022/03/14 00:58:49;;;;;;;61.25;24.17;;;;;;;1.00;41.08;101280.06;4357337;32;34172;-87
2022/03/14 01:01:21;;;;;;;60.05;23.27;;;;;;;1.13;40.74;101287.22;4357490;32;33403;-87
2022/03/14 01:03:49;;;;;;;58.38;22.50;;;;;;;1.31;40.60;101285.81;4356620;32;33041;-87
2022/03/14 01:06:17;;;;;;;72.43;23.42;;;;;;;1.12;40.98;101288.09;4356162;32;33347;-87
2022/03/14 01:08:45;;;;;;;75.00;27.80;;;;;;;1.19;40.97;101284.78;4357150;32;32470;-87
2022/03/14 01:11:13;;;;;;;74.60;29.27;;;;;;;0.94;41.86;101288.59;4356807;32;34585;-87
2022/03/14 01:13:41;;;;;;;83.43;32.28;;;;;;;1.05;41.61;101291.44;4357257;32;33005;-90
2022/03/14 01:16:09;;;;;;;79.47;31.60;;;;;;;0.97;42.05;101293.00;4357874;32;33645;-90
2022/03/14 01:18:38;;;;;;;108.20;38.78;;;;;;;0.96;42.16;101296.47;4359082;32;33267;-90
2022/03/14 01:21:05;;;;;;;83.40;31.17;;;;;;;1.01;41.99;101303.50;4342124;33;33265;-90
2022/03/14 01:23:35;;;;;;;74.35;27.00;;;;;;;0.92;42.17;101302.44;4348633;32;34365;-90
2022/03/14 01:26:06;;;;;;;72.80;29.35;;;;;;;1.05;41.76;101300.97;4359929;32;33709;-90
2022/03/14 01:28:34;;;;;;;69.30;25.90;;;;;;;1.02;42.15;101300.03;4359570;32;32707;-90
2022/03/14 01:31:02;;;;;;;66.07;25.20;;;;;;;1.07;41.83;101305.34;4352895;32;33277;-90
2022/03/14 01:33:30;;;;;;;62.42;24.83;;;;;;;1.05;41.94;101306.19;4359956;32;32985;-89
2022/03/14 01:36:00;;;;;;;58.22;22.52;;;;;;;0.85;42.43;101303.16;4352958;32;32657;-90
2022/03/14 01:38:27;;;;;;;56.65;22.27;;;;;;;0.92;42.30;101302.44;4359344;32;33069;-89
2022/03/14 01:40:55;;;;;;;57.15;23.70;;;;;;;1.00;41.85;101301.75;4359206;32;34047;-89
2022/03/14 01:43:25;;;;;;;60.60;23.38;;;;;;;0.67;42.42;101309.75;4359277;32;33016;-89
2022/03/14 01:45:57;;;;;;;50.95;21.15;;;;;;;1.00;41.78;101311.28;4354912;32;32290;-89
2022/03/14 01:48:26;;;;;;;57.40;20.83;;;;;;;0.80;42.10;101310.00;4346899;33;32397;-89
2022/03/14 01:50:54;;;;;;;46.45;20.52;;;;;;;0.89;41.85;101311.06;4359064;32;33166;-89
2022/03/14 01:53:23;;;;;;;52.35;19.92;;;;;;;0.92;41.97;101311.13;4357634;32;32862;-88
2022/03/14 01:55:52;;;;;;;48.38;19.73;;;;;;;0.58;42.65;101314.75;4358632;32;33408;-87
2022/03/14 01:58:21;;;;;;;49.85;20.30;;;;;;;0.72;42.50;101315.94;4357934;32;33931;-87
2022/03/14 02:00:48;;;;;;;49.13;20.33;;;;;;;0.69;42.49;101322.78;4359029;32;33377;-87
2022/03/14 02:03:17;;;;;;;54.00;20.17;;;;;;;0.46;42.69;101327.47;4346517;33;32786;-87
2022/03/14 02:05:45;;;;;;;45.60;18.77;;;;;;;0.62;42.59;101318.28;4350485;32;33628;-87
2022/03/14 02:08:13;;;;;;;40.33;17.75;;;;;;;0.71;42.29;101326.28;4357846;32;32320;-87
2022/03/14 02:10:41;;;;;;;39.05;17.08;;;;;;;0.54;42.69;101325.06;4359242;32;33155;-87
2022/03/14 02:13:10;;;;;;;34.10;15.50;;;;;;;0.46;42.73;101330.97;4346202;33;33495;-88
2022/03/14 02:15:38;;;;;;;41.60;17.70;;;;;;;0.43;43.16;101332.63;4358212;32;32648;-87
2022/03/14 02:18:06;;;;;;;31.98;13.95;;;;;;;0.45;43.32;101344.81;4352142;32;34210;-88
2022/03/14 02:20:34;;;;;;;37.47;14.52;;;;;;;0.57;43.22;101343.31;4346381;33;33202;-89
2022/03/14 02:23:02;;;;;;;38.42;13.88;;;;;;;0.71;42.48;101337.59;4359463;32;33906;-88
2022/03/14 02:25:34;;;;;;;31.73;14.02;;;;;;;0.63;42.78;101343.47;4334412;33;33817;-89
2022/03/14 02:28:02;;;;;;;26.48;12.82;;;;;;;0.71;42.27;101340.19;4357695;32;34087;-89
2022/03/14 02:30:31;;;;;;;27.50;12.95;;;;;;;0.57;42.47;101348.50;4346790;33;32714;-89
2022/03/14 02:32:59;;;;;;;27.58;13.02;;;;;;;0.39;43.50;101349.00;4346891;33;33063;-89
2022/03/14 02:35:27;;;;;;;30.50;13.32;;;;;;;0.54;43.36;101343.25;4358835;32;32289;-87
2022/03/14 02:37:56;;;;;;;28.87;13.38;;;;;;;0.49;43.01;101351.81;4356960;32;33083;-88
2022/03/14 02:40:24;;;;;;;31.95;14.23;;;;;;;0.53;42.73;101346.72;4358551;32;34030;-88
2022/03/14 02:42:52;;;;;;;29.02;13.77;;;;;;;0.46;43.00;101343.06;4347267;33;32718;-90
2022/03/14 02:45:20;;;;;;;41.17;14.23;;;;;;;0.33;43.72;101354.03;4347329;33;33762;-90
2022/03/14 02:47:48;;;;;;;33.88;16.48;;;;;;;0.53;43.11;101346.72;4346943;33;32740;-90
2022/03/14 02:50:15;;;;;;;33.97;12.73;;;;;;;0.18;44.18;101355.44;4342359;33;32964;-90
2022/03/14 02:52:48;;;;;;;28.15;12.55;;;;;;;0.32;43.73;101349.69;4347178;33;33552;-89
2022/03/14 02:55:17;;;;;;;27.37;11.82;;;;;;;0.27;43.56;101359.09;4359339;32;32578;-89
2022/03/14 02:57:45;;;;;;;28.83;11.90;;;;;;;0.32;43.39;101352.28;4358971;32;32667;-89
2022/03/14 03:00:14;;;;;;;28.80;12.10;;;;;;;0.27;43.63;101356.50;4358862;32;33052;-89
2022/03/14 03:02:42;;;;;;;28.95;13.62;;;;;;;0.04;43.95;101367.22;4358878;32;32904;-89
2022/03/14 03:05:10;;;;;;;28.87;11.98;;;;;;;0.37;43.36;101358.47;4346489;33;32544;-87
2022/03/14 03:07:59;;;;;;;36.25;13.43;;;;;;;0.22;43.96;101370.25;4357832;32;33551;-88
2022/03/14 03:10:28;;;;;;;38.50;17.00;;;;;;;0.01;44.82;101374.97;4345834;33;33930;-87
2022/03/14 03:12:56;;;;;;;37.40;16.35;;;;;;;0.08;44.40;101373.38;4359307;32;32182;-87
2022/03/14 03:15:24;;;;;;;31.83;15.15;;;;;;;0.09;44.86;101370.81;4358682;32;34072;-87
2022/03/14 03:17:52;;;;;;;31.33;14.18;;;;;;;0.01;45.03;101387.06;4358437;32;33046;-88
2022/03/14 03:20:22;;;;;;;29.73;13.40;;;;;;;0.04;44.73;101388.00;4358388;32;33719;-87
2022/03/14 03:22:50;;;;;;;36.88;15.48;;;;;;;-0.05;44.88;101387.78;4346488;33;32642;-88
2022/03/14 03:25:17;;;;;;;28.58;12.90;;;;;;;-0.12;44.88;101384.16;4356999;32;33752;-89
2022/03/14 03:27:46;;;;;;;29.60;14.65;;;;;;;-0.05;45.12;101387.78;4358223;32;32742;-88
2022/03/14 03:30:14;;;;;;;31.80;14.50;;;;;;;-0.18;45.29;101388.31;4354213;32;33252;-87
2022/03/14 03:32:42;;;;;;;30.10;15.75;;;;;;;-0.43;46.34;101395.44;4355584;32;32977;-87
2022/03/14 03:35:10;;;;;;;30.73;13.95;;;;;;;-0.02;44.93;101387.84;4357263;32;33115;-87
2022/03/14 03:37:40;;;;;;;41.33;15.93;;;;;;;-0.04;44.96;101389.56;4350560;32;33141;-89
2022/03/14 03:40:08;;;;;;;29.73;13.62;;;;;;;0.09;44.46;101393.31;4344986;33;32122;-86
2022/03/14 03:42:36;;;;;;;34.90;15.07;;;;;;;-0.29;45.54;101395.81;4344679;33;33977;-87
2022/03/14 03:45:05;;;;;;;27.73;12.88;;;;;;;-0.34;45.48;101400.88;4343393;32;34043;-87
2022/03/14 03:47:33;;;;;;;33.05;13.50;;;;;;;-0.39;45.78;101399.87;4356720;32;33113;-87
2022/03/14 03:50:01;;;;;;;33.92;15.55;;;;;;;-0.33;45.57;101392.28;4344085;33;34088;-87
2022/03/14 03:52:29;;;;;;;33.47;15.40;;;;;;;-0.24;45.12;101404.59;4356630;32;34819;-87
2022/03/14 03:54:56;;;;;;;35.78;16.37;;;;;;;-0.35;45.74;101409.53;4357388;32;32535;-87
2022/03/14 03:57:24;;;;;;;37.90;16.58;;;;;;;-0.29;45.47;101401.88;4350775;32;33061;-87
2022/03/14 03:59:51;;;;;;;35.00;14.55;;;;;;;-0.24;45.35;101402.00;4357249;32;33644;-87
2022/03/14 04:02:19;;;;;;;24.08;11.73;;;;;;;-0.07;44.72;101407.63;4356034;32;32848;-87
2022/03/14 04:04:49;;;;;;;26.37;13.55;;;;;;;-0.11;44.79;101405.78;4344175;33;32974;-87
2022/03/14 04:07:19;;;;;;;28.73;12.37;;;;;;;-0.20;45.30;101409.03;4358674;32;34111;-87
2022/03/14 04:09:49;;;;;;;24.83;13.02;;;;;;;-0.16;45.23;101402.22;4357222;32;34204;-87
2022/03/14 04:12:17;;;;;;;33.38;15.77;;;;;;;-0.25;45.51;101402.84;4344660;33;33536;-87
2022/03/14 04:14:44;;;;;;;35.35;14.95;;;;;;;-0.28;45.50;101395.87;4357064;32;34430;-88
2022/03/14 04:17:14;;;;;;;30.00;13.27;;;;;;;-0.20;45.43;101402.97;4332150;33;32759;-88
2022/03/14 04:19:41;;;;;;;34.65;14.52;;;;;;;-0.22;45.29;101400.34;4356696;32;34102;-88
2022/03/14 04:22:10;;;;;;;33.05;14.90;;;;;;;-0.22;45.45;101410.72;4344733;32;32966;-89
2022/03/14 04:24:38;;;;;;;37.00;14.75;;;;;;;-0.08;45.00;101405.88;4345068;33;33887;-89
2022/03/14 04:27:06;;;;;;;30.70;13.35;;;;;;;-0.49;45.86;101413.47;4355056;32;34581;-89
2022/03/14 04:29:33;;;;;;;31.98;14.35;;;;;;;-0.44;45.99;101414.47;4341926;32;179789;-89
2022/03/14 04:32:01;;;;;;;35.80;15.55;;;;;;;-0.53;46.10;101415.09;4344909;32;33299;-88
2022/03/14 04:34:30;;;;;;;33.30;15.90;;;;;;;-0.37;45.75;101416.41;4357934;32;33505;-88
2022/03/14 04:36:58;;;;;;;30.48;13.93;;;;;;;-0.57;46.51;101422.75;4358081;32;33913;-88
2022/03/14 04:39:27;;;;;;;40.40;18.08;;;;;;;-0.46;45.97;101421.34;4345911;33;32628;-87
2022/03/14 04:41:55;;;;;;;38.78;17.75;;;;;;;-0.55;46.39;101427.16;4346143;33;33911;-89
2022/03/14 04:44:23;;;;;;;54.97;21.77;;;;;;;-0.42;46.20;101430.09;4358056;32;32046;-88
2022/03/14 04:46:51;;;;;;;44.22;17.73;;;;;;;-0.64;47.02;101431.22;4357730;32;33170;-88
2022/03/14 04:49:19;;;;;;;52.80;21.83;;;;;;;-0.59;46.78;101442.59;4357913;32;32439;-89
2022/03/14 04:51:50;;;;;;;42.00;16.83;;;;;;;-0.56;46.68;101437.50;4359525;32;33409;-89
2022/03/14 04:54:19;;;;;;;37.50;16.42;;;;;;;-0.57;46.70;101438.31;4350862;32;33880;-89
2022/03/14 04:56:47;;;;;;;33.50;14.60;;;;;;;-0.56;46.46;101442.69;4347387;33;32796;-88
2022/03/14 04:59:16;;;;;;;31.70;13.05;;;;;;;-0.76;46.76;101447.28;4360094;32;32781;-89
2022/03/14 05:01:44;;;;;;;34.53;14.15;;;;;;;-0.95;47.04;101456.28;4359601;32;32927;-89
2022/03/14 05:04:12;;;;;;;24.45;12.07;;;;;;;-0.86;46.74;101453.06;4354510;32;32875;-89
2022/03/14 05:06:40;;;;;;;24.58;12.65;;;;;;;-0.75;46.62;101453.38;4360071;32;33079;-89
2022/03/14 05:09:08;;;;;;;36.97;14.25;;;;;;;-0.84;46.88;101454.88;4346346;33;33157;-89
2022/03/14 05:11:38;;;;;;;32.70;14.18;;;;;;;-0.64;46.45;101451.97;4347259;33;32587;-88
2022/03/14 05:14:09;;;;;;;32.55;14.05;;;;;;;-0.57;46.52;101459.06;4359876;32;33237;-89
2022/03/14 05:16:37;;;;;;;39.90;16.77;;;;;;;-0.66;46.65;101453.66;4358925;32;33195;-89
2022/03/14 05:19:05;;;;;;;32.25;15.75;;;;;;;-0.87;47.33;101459.97;4358819;32;32260;-89
2022/03/14 05:21:33;;;;;;;32.08;15.35;;;;;;;-0.73;47.34;101456.87;4347530;33;33044;-89
2022/03/14 05:24:01;;;;;;;36.63;15.45;;;;;;;-0.56;46.84;101460.84;4353026;32;32924;-89
2022/03/14 05:26:29;;;;;;;38.38;16.02;;;;;;;-0.51;46.56;101451.47;4347213;33;34059;-88
2022/03/14 05:28:57;;;;;;;37.88;16.85;;;;;;;-0.72;47.15;101463.81;4359135;32;34228;-88
2022/03/14 05:31:25;;;;;;;38.97;17.35;;;;;;;-0.76;47.82;101473.22;4347141;33;32931;-89
2022/03/14 05:33:53;;;;;;;39.63;17.62;;;;;;;-0.78;47.64;101467.13;4346817;33;32404;-87
2022/03/14 05:36:20;;;;;;;43.80;18.62;;;;;;;-0.61;47.36;101463.31;4357841;32;32673;-87
2022/03/14 05:38:48;;;;;;;47.10;17.87;;;;;;;-0.46;47.02;101473.25;4359208;32;32838;-87
2022/03/14 05:41:16;;;;;;;35.22;17.55;;;;;;;-0.52;46.83;101475.66;4359397;32;32957;-87
2022/03/14 05:43:44;;;;;;;46.13;19.50;;;;;;;-0.48;47.18;101480.09;4355773;32;33966;-87
2022/03/14 05:46:11;;;;;;;46.37;19.42;;;;;;;-0.21;46.73;101485.16;4359316;32;34382;-87
2022/03/14 05:48:39;;;;;;;58.63;22.50;;;;;;;-0.14;46.91;101491.37;4358680;32;34460;-87
2022/03/14 05:51:07;;;;;;;50.03;21.90;;;;;;;-0.37;47.95;101493.38;4359416;32;33005;-87
2022/03/14 05:53:35;;;;;;;57.08;22.20;;;;;;;-0.33;47.95;101485.72;4358849;32;34033;-87
2022/03/14 05:56:04;;;;;;;47.88;22.42;;;;;;;-0.39;47.91;101490.72;4358868;32;32757;-88
2022/03/14 05:58:31;;;;;;;55.92;22.42;;;;;;;-0.14;47.58;101502.69;4358733;32;32582;-87
2022/03/14 06:01:00;;;;;;;51.30;22.17;;;;;;;-0.05;47.34;101502.03;4358881;32;33048;-87
2022/03/14 06:03:28;;;;;;;50.28;22.48;;;;;;;0.39;46.25;101510.09;4352044;32;33790;-87
2022/03/14 06:05:55;;;;;;;54.40;24.12;;;;;;;0.11;47.21;101509.41;4345765;33;32749;-87
2022/03/14 06:08:22;;;;;;;49.30;23.10;;;;;;;0.17;46.79;101508.66;4358922;32;33888;-87
2022/03/14 06:10:51;;;;;;;48.33;21.67;;;;;;;0.30;46.37;101515.06;4358035;32;32575;-87
2022/03/14 06:13:18;;;;;;;52.17;22.45;;;;;;;0.52;46.21;101512.13;4359120;32;33755;-87
2022/03/14 06:15:47;;;;;;;46.97;21.27;;;;;;;0.87;45.76;101513.00;4358043;32;32749;-87
2022/03/14 06:18:15;;;;;;;56.45;23.33;;;;;;;0.76;45.90;101515.34;4358577;32;34084;-87
2022/03/14 06:20:43;;;;;;;48.17;21.45;;;;;;;1.13;45.90;101523.97;4351500;32;33073;-88
2022/03/14 06:23:10;;;;;;;48.05;21.17;;;;;;;0.95;46.75;101529.66;4350357;32;32272;-88
2022/03/14 06:25:38;;;;;;;56.47;22.75;;;;;;;1.33;46.47;101520.94;4358692;32;31917;-88
2022/03/14 06:28:07;;;;;;;47.45;22.02;;;;;;;1.17;47.03;101532.75;4345700;33;32840;-88
2022/03/14 06:30:35;;;;;;;43.03;20.37;;;;;;;1.61;46.10;101528.47;4345791;33;33194;-88
2022/03/14 06:33:03;;;;;;;44.03;20.02;;;;;;;1.79;46.11;101534.06;4358881;32;33591;-88
2022/03/14 06:35:36;;;;;;;45.33;18.87;;;;;;;1.95;45.61;101529.16;4358450;32;34253;-88
2022/03/14 06:38:05;;;;;;;32.50;15.57;;;;;;;1.61;45.79;101541.50;4346314;33;34735;-88
2022/03/14 06:40:33;;;;;;;32.85;15.55;;;;;;;1.88;44.46;101530.75;4357329;32;32797;-87
2022/03/14 06:43:00;;;;;;;39.67;15.90;;;;;;;1.94;43.38;101530.00;4359022;32;33247;-89
2022/03/14 06:45:29;;;;;;;25.65;12.75;;;;;;;2.52;43.71;101528.44;4358886;32;33619;-89
2022/03/14 06:47:57;;;;;;;27.08;12.23;;;;;;;2.77;40.79;101527.97;4359210;32;33846;-89
2022/03/14 06:50:24;;;;;;;22.20;9.75;;;;;;;2.62;38.65;101514.72;4345945;33;33524;-89
2022/03/14 06:52:59;;;;;;;20.25;10.13;;;;;;;2.74;37.13;101519.22;4346421;33;32358;-88
2022/03/14 06:55:27;;;;;;;19.65;9.65;;;;;;;2.64;36.76;101522.53;4358794;32;32546;-88
2022/03/14 06:57:55;;;;;;;19.67;10.30;;;;;;;3.15;34.42;101530.28;4353752;32;32895;-88
2022/03/14 07:00:27;;;;;;;18.52;9.75;;;;;;;3.37;34.18;101525.34;4357682;32;34188;-89
2022/03/14 07:02:56;;;;;;;22.62;11.02;;;;;;;3.47;34.48;101535.09;4346826;33;32968;-88
2022/03/14 07:05:26;;;;;;;25.08;11.10;;;;;;;4.12;34.13;101532.34;4346072;33;32596;-88
2022/03/14 07:07:54;;;;;;;28.67;11.63;;;;;;;4.61;33.01;101524.97;4351524;32;34319;-88
2022/03/14 07:10:23;;;;;;;21.17;10.40;;;;;;;4.48;32.09;101530.94;4357739;32;34824;-89
2022/03/14 07:12:51;;;;;;;21.75;10.95;;;;;;;4.77;32.44;101539.91;4345907;33;32737;-89
2022/03/14 07:15:22;;;;;;;21.08;10.20;;;;;;;4.81;32.70;101530.34;4346715;33;33101;-88
2022/03/14 07:17:50;;;;;;;17.37;10.07;;;;;;;5.43;31.21;101523.75;4358758;32;33656;-89
2022/03/14 07:20:19;;;;;;;19.75;11.12;;;;;;;5.03;31.59;101528.75;4358543;32;32912;-87
2022/03/14 07:22:51;;;;;;;21.55;10.73;;;;;;;5.16;31.28;101533.19;4358159;32;33607;-87
2022/03/14 07:25:25;;;;;;;23.42;10.45;;;;;;;5.33;31.00;101528.94;4358456;32;32192;-88
2022/03/14 07:27:54;;;;;;;19.73;11.32;;;;;;;5.77;31.29;101527.38;4358244;32;33837;-89
2022/03/14 07:30:23;;;;;;;17.08;10.13;;;;;;;5.95;30.51;101524.00;4353783;32;33425;-88
2022/03/14 07:32:51;;;;;;;23.23;11.63;;;;;;;6.31;30.72;101513.53;4358158;32;33011;-88
2022/03/14 07:35:20;;;;;;;20.90;11.20;;;;;;;6.44;30.28;101521.44;4344646;33;32929;-88
2022/03/14 07:37:48;;;;;;;21.12;8.07;;;;;;;6.57;29.31;101520.59;4346580;32;34059;-88
2022/03/14 07:40:16;;;;;;;20.62;9.40;;;;;;;6.35;28.16;101522.31;4357922;32;34181;-88
2022/03/14 07:42:53;;;;;;;19.05;8.30;;;;;;;6.50;27.64;101521.44;4357982;32;32773;-87
2022/03/14 07:45:24;;;;;;;17.50;8.25;;;;;;;7.41;26.65;101509.94;4345517;33;34161;-89
2022/03/14 07:47:54;;;;;;;24.80;8.50;;;;;;;7.50;26.23;101503.75;4357950;32;33516;-88
2022/03/14 07:50:23;;;;;;;13.20;7.87;;;;;;;7.51;26.18;101516.03;4357620;32;33345;-88
2022/03/14 07:52:51;;;;;;;13.43;7.35;;;;;;;7.94;26.03;101519.34;4358521;32;32398;-88
2022/03/14 07:55:20;;;;;;;15.93;7.72;;;;;;;8.04;25.30;101507.03;4358202;32;32736;-90
2022/03/14 07:57:48;;;;;;;16.92;8.10;;;;;;;8.05;25.67;101519.28;4357945;32;34128;-91
2022/03/14 08:00:21;;;;;;;13.95;7.12;;;;;;;7.86;25.39;101524.63;4358140;32;34030;-90
2022/03/14 08:02:49;;;;;;;13.32;7.40;;;;;;;8.60;24.50;101530.34;4351269;32;32880;-90
2022/03/14 08:05:23;;;;;;;14.43;7.55;;;;;;;8.62;24.19;101533.81;4350835;32;32859;-91
2022/03/14 08:07:53;;;;;;;11.70;7.03;;;;;;;8.66;24.83;101534.69;4345351;33;34293;-91
2022/03/14 08:10:22;;;;;;;13.75;7.75;;;;;;;8.94;24.45;101532.69;4346297;32;34338;-91
2022/03/14 08:12:51;;;;;;;14.35;7.82;;;;;;;9.15;23.48;101535.09;4358294;32;32785;-91
2022/03/14 08:15:28;;;;;;;20.42;10.10;;;;;;;9.17;24.44;101532.47;4352033;32;33449;-91
2022/03/14 08:17:58;;;;;;;14.60;7.12;;;;;;;9.26;24.49;101534.09;4353159;32;33492;-91
2022/03/14 08:20:27;;;;;;;15.23;7.82;;;;;;;9.61;23.15;101520.53;4358180;32;33522;-91
2022/03/14 08:22:57;;;;;;;14.20;8.05;;;;;;;9.42;24.67;101538.34;4346263;33;32188;-91
2022/03/14 08:25:30;;;;;;;13.45;6.80;;;;;;;9.16;23.50;101541.22;4355969;32;32668;-91
2022/03/14 08:27:58;;;;;;;11.57;7.47;;;;;;;9.26;23.65;101542.00;4344734;33;33550;-90
2022/03/14 08:30:27;;;;;;;15.57;7.55;;;;;;;9.87;23.26;101531.63;4355657;32;32702;-92
2022/03/14 08:32:57;;;;;;;12.07;7.20;;;;;;;9.67;22.78;101538.91;4358169;32;31743;-91
2022/03/14 08:35:25;;;;;;;14.48;8.13;;;;;;;9.99;23.21;101536.75;4345696;33;32833;-92
2022/03/14 08:37:54;;;;;;;17.87;7.90;;;;;;;9.80;23.54;101540.50;4357629;32;33819;-91
2022/03/14 08:40:26;;;;;;;14.40;8.05;;;;;;;9.47;23.20;101540.03;4344450;33;33950;-91
2022/03/14 08:42:55;;;;;;;12.52;7.30;;;;;;;10.09;22.79;101526.94;4357880;32;32851;-91
2022/03/14 08:45:25;;;;;;;13.15;7.68;;;;;;;10.42;22.77;101530.88;4358246;32;33816;-91
2022/03/14 08:47:53;;;;;;;13.82;7.35;;;;;;;10.06;22.93;101541.94;4357899;32;33039;-91
2022/03/14 08:50:23;;;;;;;15.20;8.27;;;;;;;9.80;23.47;101531.72;4351025;32;34314;-91
2022/03/14 08:52:52;;;;;;;11.80;6.87;;;;;;;10.10;22.78;101539.22;4358133;32;33287;-91
2022/03/14 08:55:21;;;;;;;14.55;7.80;;;;;;;10.37;23.01;101534.47;4358248;32;33602;-91
2022/03/14 08:57:49;;;;;;;13.68;7.20;;;;;;;10.69;21.88;101533.97;4356912;32;32905;-91
2022/03/14 09:00:19;;;;;;;12.52;6.55;;;;;;;10.40;23.09;101532.69;4357732;32;33845;-91
2022/03/14 09:02:47;;;;;;;11.52;6.32;;;;;;;10.10;22.52;101533.06;4357532;32;32232;-92
2022/03/14 09:05:17;;;;;;;11.60;7.03;;;;;;;11.15;21.55;101528.72;4357596;32;33699;-91
2022/03/14 09:07:45;;;;;;;12.55;6.10;;;;;;;10.97;21.50;101534.38;4356898;32;33285;-91
2022/03/14 09:10:17;;;;;;;12.40;5.95;;;;;;;11.21;21.42;101536.56;4345683;32;32908;-91
2022/03/14 09:12:49;;;;;;;9.00;5.40;;;;;;;10.86;21.59;101542.47;4357586;32;32493;-92
2022/03/14 09:15:19;;;;;;;10.15;5.32;;;;;;;10.99;21.88;101532.56;4351101;32;32715;-92
2022/03/14 09:17:59;;;;;;;9.25;5.37;;;;;;;11.20;21.96;101531.28;4357114;32;33659;-92
2022/03/14 09:20:48;;;;;;;13.48;6.37;;;;;;;11.45;21.51;101535.22;4344253;33;32885;-92
2022/03/14 09:23:20;;;;;;;11.88;6.32;;;;;;;11.26;21.04;101531.19;4355935;32;33198;-91
2022/03/14 09:25:53;;;;;;;8.65;5.87;;;;;;;11.14;21.25;101523.47;4357452;32;32328;-91
2022/03/14 09:28:20;;;;;;;9.20;5.65;;;;;;;11.58;21.32;101521.75;4356918;32;33635;-91
2022/03/14 09:30:58;;;;;;;14.30;6.70;;;;;;;11.76;21.00;101526.66;4349274;32;33417;-92
2022/03/14 09:33:29;;;;;;;9.60;5.68;;;;;;;11.60;22.46;101535.84;4345665;33;32096;-91
2022/03/14 09:36:06;;;;;;;15.02;7.87;;;;;;;11.83;21.84;101533.62;4352819;32;33747;-92
2022/03/14 09:38:34;;;;;;;12.23;6.45;;;;;;;11.66;21.42;101535.69;4356757;32;34121;-91
2022/03/14 09:41:04;;;;;;;15.70;6.65;;;;;;;11.80;21.89;101533.62;4359435;32;34114;-92
2022/03/14 09:43:38;;;;;;;11.45;5.47;;;;;;;12.16;21.14;101544.38;4346921;33;32293;-92
2022/03/14 09:46:09;;;;;;;9.05;6.35;;;;;;;12.28;23.18;101534.34;4346953;33;33090;-91
2022/03/14 09:48:51;;;;;;;8.70;5.62;;;;;;;11.77;21.52;101533.69;4358970;32;33711;-91
2022/03/14 09:51:22;;;;;;;10.73;6.05;;;;;;;12.63;21.67;101526.47;4359861;32;32959;-91
2022/03/14 09:53:50;;;;;;;8.43;4.95;;;;;;;12.60;22.48;101534.50;4359784;32;33184;-91
2022/03/14 09:56:20;;;;;;;10.60;5.97;;;;;;;12.69;19.96;101529.84;4358687;32;33606;-91
2022/03/14 09:58:49;;;;;;;8.43;5.25;;;;;;;12.49;20.18;101533.00;4352596;32;32978;-92
2022/03/14 10:01:22;;;;;;;11.50;5.28;;;;;;;12.73;19.73;101528.00;4359915;32;32783;-91
2022/03/14 10:03:51;;;;;;;8.57;4.85;;;;;;;12.46;19.80;101527.75;4359390;32;32724;-91
2022/03/14 10:06:20;;;;;;;9.68;5.47;;;;;;;12.30;19.90;101529.03;4347399;33;32507;-91
2022/03/14 10:08:48;;;;;;;7.35;4.87;;;;;;;12.71;20.82;101524.50;4346953;33;34840;-91
2022/03/14 10:11:37;;;;;;;6.53;4.15;;;;;;;12.95;19.99;101523.88;4357315;32;32977;-91
2022/03/14 10:14:05;;;;;;;10.30;5.45;;;;;;;12.80;19.53;101521.63;4346813;33;32259;-91
2022/03/14 10:16:56;;;;;;;8.43;5.55;;;;;;;13.30;19.38;101520.31;4358674;32;32897;-91
2022/03/14 10:19:34;;;;;;;9.05;4.95;;;;;;;14.04;18.69;101510.19;4346214;33;33162;-91
2022/03/14 10:22:20;;;;;;;7.20;4.43;;;;;;;14.07;18.95;101503.00;4347014;33;33872;-90
2022/03/14 10:24:49;;;;;;;7.75;4.60;;;;;;;13.79;19.16;101510.09;4345960;33;32677;-92
2022/03/14 10:27:21;;;;;;;6.62;4.45;;;;;;;14.04;19.21;101507.53;4346959;33;33136;-91
2022/03/14 10:29:49;;;;;;;6.80;4.28;;;;;;;13.83;18.38;101512.59;4346809;33;33104;-91
2022/03/14 10:32:30;;;;;;;10.13;5.18;;;;;;;14.15;18.95;101499.22;4359184;32;33029;-91
2022/03/14 10:35:22;;;;;;;7.60;4.75;;;;;;;14.31;19.36;101511.13;4341714;33;32242;-92
2022/03/14 10:38:16;;;;;;;10.25;4.35;;;;;;;14.05;19.69;101510.19;4346474;33;32319;-91
2022/03/14 10:40:45;;;;;;;6.22;3.62;;;;;;;14.20;18.37;101518.59;4359145;32;33231;-91
2022/03/14 10:43:27;;;;;;;5.77;4.17;;;;;;;13.92;17.83;101519.44;4358641;32;33096;-88
2022/03/14 10:45:56;;;;;;;7.12;4.65;;;;;;;14.30;18.47;101512.06;4357319;32;33316;-90
2022/03/14 10:48:45;;;;;;;8.43;4.85;;;;;;;14.42;17.66;101514.31;4344326;33;32940;-90
2022/03/14 10:51:18;;;;;;;7.68;4.22;;;;;;;14.22;18.10;101519.41;4359131;32;33756;-90
2022/03/14 10:53:48;;;;;;;6.47;3.92;;;;;;;14.60;19.60;101507.56;4359130;32;34623;-88
2022/03/14 10:56:17;;;;;;;7.37;4.95;;;;;;;14.74;18.85;101501.78;4358610;32;32575;-86
2022/03/14 10:58:44;;;;;;;7.35;5.25;;;;;;;14.64;18.78;101511.84;4357598;32;33842;-90
2022/03/14 11:01:13;;;;;;;7.00;4.87;;;;;;;14.35;18.62;101504.81;4358412;32;32553;-89
2022/03/14 11:03:42;;;;;;;8.85;4.87;;;;;;;14.79;18.58;101500.69;4344534;33;32650;-90
2022/03/14 11:06:14;;;;;;;7.28;4.87;;;;;;;14.78;17.40;101511.41;4358727;32;33407;-89
2022/03/14 11:08:44;;;;;;;9.60;5.65;;;;;;;14.52;18.96;101504.28;4355958;32;34042;-87
2022/03/14 11:11:14;;;;;;;8.70;5.00;;;;;;;14.94;17.50;101495.78;4357416;32;33619;-89
2022/03/14 11:13:44;;;;;;;6.05;4.45;;;;;;;15.03;17.67;101491.00;4346449;33;33150;-90
2022/03/14 11:16:22;;;;;;;7.28;4.30;;;;;;;14.70;18.96;101492.16;4358682;32;32819;-89
2022/03/14 11:18:51;;;;;;;6.35;4.22;;;;;;;14.88;18.98;101496.84;4346296;33;33145;-88
2022/03/14 11:21:21;;;;;;;5.78;3.90;;;;;;;15.05;18.67;101488.31;4357876;32;33871;-89
2022/03/14 11:23:49;;;;;;;6.90;4.12;;;;;;;15.11;18.34;101491.59;4352830;32;33838;-89
2022/03/14 11:26:20;;;;;;;6.65;4.28;;;;;;;15.44;17.30;101485.97;4356285;32;32573;-89
2022/03/14 11:28:49;;;;;;;7.57;4.50;;;;;;;15.29;19.62;101486.56;4358218;32;34582;-89